createdAt,value
2019-05-30T00:01:04.513Z,9.93
2019-05-30T00:03:34.274Z,9.20
2019-05-30T00:06:04.606Z,5.50
2019-05-30T00:08:34.408Z,7.57
2019-05-30T00:11:04.797Z,4.97
2019-05-30T00:13:34.581Z,5.77
2019-05-30T00:16:05.634Z,12.43
2019-05-30T00:18:35.545Z,7.33
2019-05-30T00:21:05.242Z,14.47
2019-05-30T00:23:34.919Z,10.83
2019-05-30T00:26:04.762Z,11.30
2019-05-30T00:28:34.493Z,6.53
2019-05-30T00:31:04.680Z,5.67
2019-05-30T00:33:34.465Z,5.40
2019-05-30T00:36:04.276Z,9.70
2019-05-30T00:38:33.989Z,8.50
2019-05-30T00:41:04.217Z,5.57
2019-05-30T00:43:34.008Z,3.83
2019-05-30T00:46:04.186Z,3.17
2019-05-30T00:48:34.010Z,4.77
2019-05-30T00:51:04.661Z,4.20
2019-05-30T00:53:35.585Z,7.13
2019-05-30T00:56:05.411Z,4.73
2019-05-30T00:58:35.130Z,7.63
2019-05-30T01:01:05.224Z,5.40
2019-05-30T01:03:34.965Z,3.50
2019-05-30T01:06:05.016Z,8.53
2019-05-30T01:08:34.748Z,8.47
2019-05-30T01:11:05.278Z,6.30
2019-05-30T01:13:35.026Z,4.37
2019-05-30T01:16:05.478Z,3.67
2019-05-30T01:18:35.324Z,12.53
2019-05-30T01:21:05.375Z,4.27
2019-05-30T01:23:36.855Z,3.50
2019-05-30T01:26:07.643Z,5.47
2019-05-30T01:28:37.364Z,7.23
2019-05-30T01:31:10.127Z,17.97
2019-05-30T01:33:38.414Z,6.03
2019-05-30T01:36:08.071Z,3.90
2019-05-30T01:38:37.784Z,7.27
2019-05-30T01:41:08.059Z,2.10
2019-05-30T01:43:37.839Z,6.27
2019-05-30T01:46:08.359Z,5.30
2019-05-30T01:48:38.083Z,8.23
2019-05-30T01:51:08.689Z,3.60
2019-05-30T01:53:38.412Z,7.43
2019-05-30T01:56:08.955Z,6.83
2019-05-30T01:58:38.748Z,3.97
2019-05-30T02:01:23.681Z,7.77
2019-05-30T02:03:40.868Z,5.20
2019-05-30T02:06:10.510Z,3.17
2019-05-30T02:08:40.310Z,7.63
2019-05-30T02:11:09.986Z,3.13
2019-05-30T02:13:41.572Z,7.77
2019-05-30T02:16:11.257Z,6.40
2019-05-30T02:18:40.995Z,15.13
2019-05-30T02:21:10.637Z,4.20
2019-05-30T02:23:40.341Z,5.17
2019-05-30T02:26:10.583Z,2.47
2019-05-30T02:28:40.474Z,4.83
2019-05-30T02:31:12.228Z,6.27
2019-05-30T02:33:41.542Z,11.40
2019-05-30T02:36:12.581Z,4.33
2019-05-30T02:38:42.540Z,3.90
2019-05-30T02:41:12.649Z,5.63
2019-05-30T02:43:42.525Z,7.33
2019-05-30T02:46:12.681Z,4.40
2019-05-30T02:48:57.997Z,6.63
2019-05-30T02:51:13.785Z,4.30
2019-05-30T02:53:43.476Z,1.90
2019-05-30T02:56:13.127Z,8.40
2019-05-30T02:58:42.864Z,2.70
2019-05-30T03:01:14.601Z,5.57
2019-05-30T03:03:44.998Z,3.20
2019-05-30T03:06:14.902Z,4.90
2019-05-30T03:08:44.671Z,2.40
2019-05-30T03:11:15.590Z,2.00
2019-05-30T03:13:45.422Z,7.83
2019-05-30T03:16:15.190Z,2.70
2019-05-30T03:18:44.902Z,6.10
2019-05-30T03:21:15.666Z,2.93
2019-05-30T03:23:46.607Z,4.33
2019-05-30T03:26:16.576Z,3.90
2019-05-30T03:28:46.507Z,5.00
2019-05-30T03:31:27.392Z,3.83
2019-05-30T03:33:48.933Z,3.53
2019-05-30T03:36:28.233Z,3.80
2019-05-30T03:38:50.022Z,3.63
2019-05-30T03:41:19.910Z,4.73
2019-05-30T03:43:50.540Z,5.73
2019-05-30T03:46:23.615Z,4.37
2019-05-30T03:48:54.814Z,4.03
2019-05-30T03:51:25.712Z,4.10
2019-05-30T03:53:56.609Z,11.50
2019-05-30T03:56:33.874Z,4.57
2019-05-30T03:59:13.119Z,4.50
2019-05-30T04:01:51.402Z,7.53
2019-05-30T04:04:26.200Z,5.17
2019-05-30T04:07:00.401Z,3.93
2019-05-30T04:09:32.217Z,2.80
2019-05-30T04:12:12.739Z,5.53
2019-05-30T04:14:45.514Z,5.50
2019-05-30T04:17:16.061Z,5.97
2019-05-30T04:19:46.615Z,4.77
2019-05-30T04:22:16.275Z,2.53
2019-05-30T04:24:45.934Z,8.97
2019-05-30T04:27:16.124Z,5.13
2019-05-30T04:29:46.490Z,2.00
2019-05-30T04:32:16.539Z,3.60
2019-05-30T04:34:46.445Z,5.07
2019-05-30T04:37:17.171Z,9.37
2019-05-30T04:39:47.492Z,12.13
2019-05-30T04:42:18.829Z,5.20
2019-05-30T04:44:48.558Z,7.43
2019-05-30T04:47:18.526Z,2.20
2019-05-30T04:49:48.696Z,7.07
2019-05-30T04:52:23.959Z,3.33
2019-05-30T04:54:49.794Z,6.83
2019-05-30T04:57:25.576Z,3.80
2019-05-30T04:59:50.882Z,6.20
2019-05-30T05:02:21.190Z,6.60
2019-05-30T05:04:51.868Z,8.33
2019-05-30T05:07:22.059Z,6.47
2019-05-30T05:09:51.850Z,7.37
2019-05-30T05:12:22.458Z,9.07
2019-05-30T05:14:52.283Z,10.23
2019-05-30T05:17:23.078Z,9.10
2019-05-30T05:19:53.919Z,8.43
2019-05-30T05:22:23.590Z,7.67
2019-05-30T05:24:53.223Z,11.67
2019-05-30T05:27:23.926Z,6.10
2019-05-30T05:29:53.718Z,13.40
2019-05-30T05:32:24.546Z,8.83
2019-05-30T05:34:54.462Z,7.27
2019-05-30T05:37:25.069Z,7.93
2019-05-30T05:39:55.029Z,9.73
2019-05-30T05:42:28.380Z,9.10
2019-05-30T05:44:56.077Z,5.60
2019-05-30T05:47:25.750Z,6.47
2019-05-30T05:49:55.596Z,5.17
2019-05-30T05:52:25.311Z,5.83
2019-05-30T05:54:55.109Z,6.40
2019-05-30T05:57:25.083Z,9.70
2019-05-30T05:59:54.778Z,5.87
2019-05-30T06:02:25.165Z,9.53
2019-05-30T06:04:54.891Z,9.30
2019-05-30T06:07:24.646Z,7.03
2019-05-30T06:09:55.293Z,6.03
2019-05-30T06:12:25.784Z,7.93
2019-05-30T06:14:56.862Z,6.13
2019-05-30T06:17:26.556Z,8.37
2019-05-30T06:19:56.246Z,8.70
2019-05-30T06:22:25.897Z,9.23
2019-05-30T06:24:55.575Z,9.13
2019-05-30T06:27:26.165Z,6.13
2019-05-30T06:29:55.887Z,8.00
2019-05-30T06:32:28.905Z,6.20
2019-05-30T06:34:58.700Z,9.13
2019-05-30T06:37:29.343Z,7.40
2019-05-30T06:39:59.132Z,6.40
2019-05-30T06:42:30.212Z,10.60
2019-05-30T06:45:01.048Z,6.27
2019-05-30T06:47:30.706Z,10.63
2019-05-30T06:50:00.423Z,12.00
2019-05-30T06:52:32.034Z,14.27
2019-05-30T06:55:01.578Z,4.50
2019-05-30T06:57:31.463Z,5.90
2019-05-30T07:00:01.149Z,5.80
2019-05-30T07:02:32.398Z,6.73
2019-05-30T07:05:02.875Z,6.30
2019-05-30T07:07:33.462Z,7.57
2019-05-30T07:10:05.061Z,6.43
2019-05-30T07:12:34.820Z,5.40
2019-05-30T07:15:05.773Z,8.30
2019-05-30T07:17:35.454Z,11.83
2019-05-30T07:20:05.922Z,7.40
2019-05-30T07:22:35.638Z,8.30
2019-05-30T07:25:06.404Z,7.07
2019-05-30T07:27:36.300Z,6.60
2019-05-30T07:30:06.701Z,9.20
2019-05-30T07:32:36.449Z,9.33
2019-05-30T07:35:07.640Z,8.30
2019-05-30T07:37:37.478Z,16.00
2019-05-30T07:40:07.763Z,12.97
2019-05-30T07:42:37.523Z,13.37
2019-05-30T07:45:08.963Z,14.03
2019-05-30T07:47:38.750Z,16.13
2019-05-30T07:50:09.721Z,21.40
2019-05-30T07:52:39.544Z,16.40
2019-05-30T07:55:11.429Z,17.20
2019-05-30T07:57:41.887Z,15.90
2019-05-30T08:00:13.437Z,17.10
2019-05-30T08:02:43.358Z,15.30
2019-05-30T08:05:23.681Z,17.93
2019-05-30T08:07:44.908Z,19.53
2019-05-30T08:10:14.970Z,14.00
2019-05-30T08:12:44.716Z,16.00
2019-05-30T08:15:15.082Z,16.80
2019-05-30T08:17:44.907Z,13.10
2019-05-30T08:20:15.063Z,19.40
2019-05-30T08:22:44.847Z,11.83
2019-05-30T08:25:14.788Z,13.80
2019-05-30T08:27:44.973Z,16.47
2019-05-30T08:30:15.634Z,13.20
2019-05-30T08:32:46.450Z,11.07
2019-05-30T08:35:16.331Z,14.10
2019-05-30T08:37:46.013Z,13.20
2019-05-30T08:40:17.341Z,13.17
2019-05-30T08:42:47.087Z,15.93
2019-05-30T08:45:18.335Z,14.47
2019-05-30T08:47:48.183Z,11.47
2019-05-30T08:50:18.321Z,12.67
2019-05-30T08:52:48.317Z,15.37
2019-05-30T08:55:19.169Z,14.27
2019-05-30T08:57:49.616Z,17.50
2019-05-30T09:00:21.485Z,15.53
2019-05-30T09:02:51.178Z,14.10
2019-05-30T09:05:21.209Z,12.97
2019-05-30T09:07:50.939Z,12.80
2019-05-30T09:10:20.763Z,12.47
2019-05-30T09:12:50.552Z,11.10
2019-05-30T09:15:22.063Z,11.40
2019-05-30T09:17:52.175Z,12.50
2019-05-30T09:20:22.611Z,15.00
2019-05-30T09:22:52.469Z,13.57
2019-05-30T09:25:23.579Z,10.70
2019-05-30T09:27:53.886Z,10.80
2019-05-30T09:30:24.297Z,10.57
2019-05-30T09:32:54.132Z,12.27
2019-05-30T09:35:24.311Z,11.50
2019-05-30T09:37:53.999Z,10.90
2019-05-30T09:40:24.179Z,10.20
2019-05-30T09:42:53.865Z,10.63
2019-05-30T09:45:25.319Z,11.80
2019-05-30T09:47:54.983Z,14.13
2019-05-30T09:50:24.924Z,10.60
2019-05-30T09:52:54.628Z,12.27
2019-05-30T09:55:24.641Z,11.83
2019-05-30T09:57:54.283Z,11.37
2019-05-30T10:00:24.376Z,14.30
2019-05-30T10:02:54.119Z,10.20
2019-05-30T10:05:25.009Z,10.57
2019-05-30T10:07:54.797Z,10.80
2019-05-30T10:10:24.770Z,9.60
2019-05-30T10:12:54.488Z,12.70
2019-05-30T10:15:24.489Z,10.70
2019-05-30T10:17:54.709Z,10.87
2019-05-30T10:20:24.705Z,11.43
2019-05-30T10:22:55.438Z,11.60
2019-05-30T10:25:25.093Z,10.90
2019-05-30T10:27:55.000Z,11.70
2019-05-30T10:30:25.241Z,14.90
2019-05-30T10:32:55.917Z,10.70
2019-05-30T10:35:29.448Z,12.90
2019-05-30T10:37:57.338Z,11.73
2019-05-30T10:40:27.379Z,12.20
2019-05-30T10:42:57.176Z,11.03
2019-05-30T10:45:28.138Z,12.50
2019-05-30T10:47:58.026Z,10.60
2019-05-30T10:50:28.716Z,11.43
2019-05-30T10:52:58.526Z,14.70
2019-05-30T10:55:28.506Z,12.80
2019-05-30T10:57:59.678Z,14.53
2019-05-30T11:00:53.001Z,12.60
2019-05-30T11:03:24.641Z,10.70
2019-05-30T11:06:01.629Z,12.73
2019-05-30T11:08:32.471Z,11.53
2019-05-30T11:11:02.254Z,12.40
2019-05-30T11:13:33.244Z,12.53
2019-05-30T11:16:03.126Z,12.80
2019-05-30T11:18:33.374Z,15.60
2019-05-30T11:21:03.399Z,13.37
2019-05-30T11:23:33.102Z,12.90
2019-05-30T11:26:02.874Z,11.80
2019-05-30T11:28:32.652Z,14.40
2019-05-30T11:31:04.517Z,14.80
2019-05-30T11:33:33.827Z,14.53
2019-05-30T11:36:04.124Z,12.90
2019-05-30T11:38:34.392Z,13.83
2019-05-30T11:41:04.142Z,12.43
2019-05-30T11:43:33.910Z,14.00
2019-05-30T11:46:04.640Z,14.20
2019-05-30T11:48:34.448Z,16.07
2019-05-30T11:51:04.238Z,14.47
2019-05-30T11:53:34.474Z,12.50
2019-05-30T11:56:04.250Z,12.63
2019-05-30T11:58:34.072Z,12.50
2019-05-30T12:01:03.875Z,11.40
2019-05-30T12:03:34.047Z,13.77
2019-05-30T12:06:03.964Z,13.63
2019-05-30T12:08:34.244Z,11.60
2019-05-30T12:11:04.182Z,14.30
2019-05-30T12:13:33.960Z,11.97
2019-05-30T12:16:05.412Z,12.40
2019-05-30T12:18:35.346Z,11.70
2019-05-30T12:21:05.193Z,12.70
2019-05-30T12:23:39.863Z,17.77
2019-05-30T12:26:09.691Z,13.20
2019-05-30T12:28:41.086Z,14.97
2019-05-30T12:31:10.871Z,17.30
2019-05-30T12:33:41.622Z,15.50
2019-05-30T12:36:11.500Z,17.13
2019-05-30T12:38:41.258Z,12.80
2019-05-30T12:41:11.012Z,13.70
2019-05-30T12:43:40.848Z,14.10
2019-05-30T12:46:12.053Z,13.97
2019-05-30T12:48:41.829Z,14.83
2019-05-30T12:51:11.729Z,13.50
2019-05-30T12:53:41.506Z,13.37
2019-05-30T12:56:11.202Z,15.03
2019-05-30T12:58:41.975Z,12.80
2019-05-30T13:01:12.068Z,12.87
2019-05-30T13:03:41.996Z,17.03
2019-05-30T13:06:11.958Z,13.43
2019-05-30T13:08:41.720Z,13.50
2019-05-30T13:11:11.439Z,13.47
2019-05-30T13:13:47.756Z,14.87
2019-05-30T13:16:22.239Z,15.13
2019-05-30T13:18:52.022Z,13.40
2019-05-30T13:21:24.064Z,16.20
2019-05-30T13:23:53.729Z,13.30
2019-05-30T13:26:23.591Z,17.17
2019-05-30T13:28:53.371Z,17.20
2019-05-30T13:31:23.055Z,14.30
2019-05-30T13:33:53.111Z,13.83
2019-05-30T13:36:22.757Z,13.43
2019-05-30T13:38:52.435Z,14.80
2019-05-30T13:41:22.144Z,15.20
2019-05-30T13:43:51.827Z,15.20
2019-05-30T13:46:21.493Z,14.57
2019-05-30T13:48:51.174Z,14.47
2019-05-30T13:51:21.043Z,14.93
2019-05-30T13:53:51.029Z,14.50
2019-05-30T13:56:20.776Z,13.90
2019-05-30T13:58:50.460Z,16.03
2019-05-30T14:01:20.153Z,15.43
2019-05-30T14:03:51.829Z,15.50
2019-05-30T14:06:21.599Z,16.00
2019-05-30T14:08:51.519Z,24.30
2019-05-30T14:11:21.277Z,15.60
2019-05-30T14:13:50.943Z,22.53
2019-05-30T14:16:20.625Z,14.27
2019-05-30T14:18:50.505Z,17.50
2019-05-30T14:21:20.225Z,16.00
2019-05-30T14:23:49.931Z,16.00
2019-05-30T14:26:19.709Z,15.07
2019-05-30T14:28:49.523Z,16.97
2019-05-30T14:31:19.234Z,15.20
2019-05-30T14:33:51.814Z,15.30
2019-05-30T14:36:21.466Z,17.53
2019-05-30T14:38:58.227Z,19.63
2019-05-30T14:41:22.776Z,4.30
2019-05-30T14:43:52.423Z,2.20
2019-05-30T14:46:22.270Z,1.37
2019-05-30T14:48:52.024Z,2.13
2019-05-30T14:51:21.709Z,17.43
2019-05-30T14:53:51.409Z,3.30
2019-05-30T14:56:22.969Z,2.40
2019-05-30T14:58:52.936Z,3.17
2019-05-30T15:01:22.725Z,1.50
2019-05-30T15:03:52.555Z,1.50
2019-05-30T15:06:22.262Z,1.80
2019-05-30T15:08:53.567Z,1.67
2019-05-30T15:11:23.511Z,5.20
2019-05-30T15:13:53.161Z,3.33
2019-05-30T15:16:22.974Z,1.63
2019-05-30T15:18:52.683Z,1.50
2019-05-30T15:21:22.378Z,3.43
2019-05-30T15:23:52.076Z,2.10
2019-05-30T15:26:21.769Z,2.47
2019-05-30T15:28:51.503Z,4.73
2019-05-30T15:31:21.415Z,3.63
2019-05-30T15:33:51.364Z,2.77
2019-05-30T15:36:21.096Z,6.03
2019-05-30T15:38:50.834Z,2.03
2019-05-30T15:41:20.621Z,1.37
2019-05-30T15:43:50.472Z,1.57
2019-05-30T15:46:20.270Z,9.20
2019-05-30T15:48:49.948Z,1.50
2019-05-30T15:51:19.678Z,3.00
2019-05-30T15:53:49.551Z,3.63
2019-05-30T15:56:19.487Z,3.03
2019-05-30T15:58:49.200Z,3.77
2019-05-30T16:01:20.078Z,3.63
2019-05-30T16:03:49.860Z,6.00
2019-05-30T16:06:20.849Z,2.83
2019-05-30T16:08:51.629Z,2.40
2019-05-30T16:11:22.868Z,2.67
2019-05-30T16:13:52.555Z,4.20
2019-05-30T16:16:33.745Z,2.03
2019-05-30T16:18:53.811Z,5.67
2019-05-30T16:21:24.506Z,4.57
2019-05-30T16:23:54.141Z,7.73
2019-05-30T16:26:23.813Z,3.73
2019-05-30T16:28:53.546Z,1.93
2019-05-30T16:31:23.234Z,1.93
2019-05-30T16:33:52.895Z,2.50
2019-05-30T16:36:22.704Z,2.83
2019-05-30T16:38:52.466Z,3.60
2019-05-30T16:41:22.629Z,4.07
2019-05-30T16:43:52.414Z,2.37
2019-05-30T16:46:22.684Z,7.30
2019-05-30T16:48:52.661Z,6.23
2019-05-30T16:51:23.544Z,17.13
2019-05-30T16:53:53.363Z,2.37
2019-05-30T16:56:23.575Z,2.50
2019-05-30T16:58:53.372Z,4.07
2019-05-30T17:01:24.209Z,4.90
2019-05-30T17:03:54.083Z,6.97
2019-05-30T17:06:23.830Z,4.57
2019-05-30T17:08:54.488Z,8.63
2019-05-30T17:11:25.510Z,2.43
2019-05-30T17:13:55.295Z,3.70
2019-05-30T17:16:26.311Z,3.30
2019-05-30T17:18:56.097Z,2.73
2019-05-30T17:21:26.794Z,10.90
2019-05-30T17:23:56.534Z,4.37
2019-05-30T17:26:27.331Z,4.00
2019-05-30T17:28:57.094Z,2.77
2019-05-30T17:31:28.485Z,2.03
2019-05-30T17:33:58.383Z,8.93
2019-05-30T17:36:28.459Z,2.40
2019-05-30T17:38:58.204Z,3.30
2019-05-30T17:41:28.930Z,3.30
2019-05-30T17:43:58.756Z,3.10
2019-05-30T17:46:29.842Z,2.80
2019-05-30T17:49:00.862Z,6.83
2019-05-30T17:51:30.520Z,3.00
2019-05-30T17:54:00.234Z,2.13
2019-05-30T17:56:30.296Z,5.03
2019-05-30T17:59:00.141Z,1.90
2019-05-30T18:01:30.563Z,2.27
2019-05-30T18:04:00.331Z,4.93
2019-05-30T18:06:30.816Z,1.80
2019-05-30T18:09:00.535Z,2.07
2019-05-30T18:11:31.899Z,5.27
2019-05-30T18:14:01.538Z,2.43
2019-05-30T18:16:31.482Z,3.27
2019-05-30T18:19:02.133Z,2.77
2019-05-30T18:21:31.924Z,2.50
2019-05-30T18:24:01.944Z,2.63
2019-05-30T18:26:32.012Z,2.10
2019-05-30T18:29:01.704Z,3.43
2019-05-30T18:31:32.288Z,1.80
2019-05-30T18:34:02.293Z,4.00
2019-05-30T18:36:32.676Z,1.80
2019-05-30T18:39:02.524Z,6.97
2019-05-30T18:41:33.889Z,2.73
2019-05-30T18:44:03.727Z,3.27
2019-05-30T18:46:33.468Z,6.80
2019-05-30T18:49:04.231Z,1.80
2019-05-30T18:51:33.862Z,2.20
2019-05-30T18:54:03.664Z,1.33
2019-05-30T18:56:33.313Z,4.67
2019-05-30T18:59:02.996Z,1.67
2019-05-30T19:01:33.770Z,4.47
2019-05-30T19:04:04.195Z,1.50
2019-05-30T19:06:34.045Z,1.47
2019-05-30T19:09:06.731Z,3.00
2019-05-30T19:11:37.017Z,2.37
2019-05-30T19:14:08.116Z,4.70
2019-05-30T19:16:39.445Z,1.73
2019-05-30T19:19:09.119Z,1.60
2019-05-30T19:21:38.883Z,1.67
2019-05-30T19:24:08.597Z,3.00
2019-05-30T19:26:38.343Z,3.17
2019-05-30T19:29:08.051Z,2.37
2019-05-30T19:31:37.721Z,2.20
2019-05-30T19:34:07.486Z,4.97
2019-05-30T19:36:38.305Z,5.03
2019-05-30T19:39:08.074Z,3.23
2019-05-30T19:41:52.625Z,1.70
2019-05-30T19:44:09.307Z,5.17
2019-05-30T19:46:39.137Z,6.83
2019-05-30T19:49:08.895Z,3.37
2019-05-30T19:51:39.243Z,4.70
2019-05-30T19:54:09.983Z,2.60
2019-05-30T19:56:41.663Z,2.20
2019-05-30T19:59:11.138Z,2.30
2019-05-30T20:01:40.876Z,3.23
2019-05-30T20:04:10.554Z,3.50
2019-05-30T20:06:40.870Z,2.70
2019-05-30T20:09:10.752Z,3.10
2019-05-30T20:11:41.577Z,1.90
2019-05-30T20:14:11.359Z,2.63
2019-05-30T20:16:42.004Z,2.50
2019-05-30T20:19:11.763Z,2.33
2019-05-30T20:21:42.040Z,1.93
2019-05-30T20:24:11.807Z,2.83
2019-05-30T20:26:42.800Z,6.97
2019-05-30T20:29:12.589Z,1.87
2019-05-30T20:31:43.648Z,2.37
2019-05-30T20:34:13.489Z,2.80
2019-05-30T20:36:43.469Z,2.00
2019-05-30T20:39:13.154Z,3.00
2019-05-30T20:41:43.182Z,3.57
2019-05-30T20:44:12.994Z,3.03
2019-05-30T20:46:43.231Z,2.77
2019-05-30T20:49:13.141Z,2.57
2019-05-30T20:51:43.412Z,2.60
2019-05-30T20:54:13.288Z,2.03
2019-05-30T20:56:44.118Z,4.70
2019-05-30T20:59:14.767Z,3.00
2019-05-30T21:01:45.824Z,2.30
2019-05-30T21:04:15.765Z,3.60
2019-05-30T21:06:47.192Z,3.10
2019-05-30T21:09:28.594Z,2.60
2019-05-30T21:11:50.501Z,3.10
2019-05-30T21:14:26.972Z,7.30
2019-05-30T21:16:54.961Z,2.30
2019-05-30T21:19:24.701Z,3.73
2019-05-30T21:21:54.433Z,2.50
2019-05-30T21:24:24.100Z,3.00
2019-05-30T21:26:53.884Z,5.73
2019-05-30T21:29:23.769Z,3.37
2019-05-30T21:31:53.521Z,7.00
2019-05-30T21:34:23.363Z,8.33
2019-05-30T21:36:53.041Z,3.20
2019-05-30T21:39:22.791Z,3.50
2019-05-30T21:41:52.783Z,2.70
2019-05-30T21:44:22.564Z,10.13
2019-05-30T21:46:52.295Z,5.70
2019-05-30T21:49:22.119Z,3.33
2019-05-30T21:51:51.858Z,3.30
2019-05-30T21:54:21.566Z,3.00
2019-05-30T21:56:51.560Z,2.73
2019-05-30T21:59:21.375Z,2.90
2019-05-30T22:01:56.564Z,3.70
2019-05-30T22:04:22.602Z,3.63
2019-05-30T22:06:52.424Z,4.23
2019-05-30T22:09:22.373Z,3.20
2019-05-30T22:11:52.191Z,2.80
2019-05-30T22:14:21.976Z,4.33
2019-05-30T22:16:52.164Z,3.80
2019-05-30T22:19:22.211Z,9.87
2019-05-30T22:21:52.422Z,10.40
2019-05-30T22:24:22.237Z,6.00
2019-05-30T22:26:52.624Z,5.17
2019-05-30T22:29:22.501Z,5.53
2019-05-30T22:31:53.498Z,5.40
2019-05-30T22:34:23.606Z,4.47
2019-05-30T22:36:53.635Z,2.60
2019-05-30T22:39:23.366Z,9.50
2019-05-30T22:41:53.068Z,5.20
2019-05-30T22:44:24.364Z,3.13
2019-05-30T22:46:54.165Z,5.87
2019-05-30T22:49:23.871Z,4.00
2019-05-30T22:51:53.647Z,6.33
2019-05-30T22:54:23.480Z,3.70
2019-05-30T22:56:53.574Z,4.37
2019-05-30T22:59:23.406Z,2.90
2019-05-30T23:01:53.659Z,2.50
2019-05-30T23:04:25.153Z,2.50
2019-05-30T23:06:54.950Z,3.07
2019-05-30T23:09:25.041Z,3.50
2019-05-30T23:11:55.995Z,6.57
2019-05-30T23:14:25.779Z,7.27
2019-05-30T23:16:56.453Z,4.20
2019-05-30T23:19:26.298Z,6.97
2019-05-30T23:21:57.216Z,5.87
2019-05-30T23:24:27.035Z,7.10
2019-05-30T23:26:59.965Z,5.60
2019-05-30T23:29:29.883Z,5.90
2019-05-30T23:31:59.573Z,5.53
2019-05-30T23:34:29.340Z,7.27
2019-05-30T23:36:59.100Z,5.57
2019-05-30T23:39:28.909Z,5.30
2019-05-30T23:41:59.318Z,3.67
2019-05-30T23:44:29.315Z,4.00
2019-05-30T23:46:59.772Z,3.63
2019-05-30T23:49:29.601Z,3.70
2019-05-30T23:52:00.369Z,5.00
2019-05-30T23:54:30.307Z,3.83
2019-05-30T23:57:00.826Z,4.10
2019-05-30T23:59:30.746Z,5.00
